Airfield :
LOGIN :

Register | Disclaimer

   EN    FR    IT 

 










Legend :    VFR   Marginal VFR   IFR   Intensive IFR   Very Intensive IFR
Visi :
Ceiling :
>= 8 km
>= 3000ft
5 to 8 km
1000 to 3000 ft
1500m to 5 km
500 to 1000 ft
800 to 1500m
200 to 500 ft
< 800m
< 200 ft
Symbols :   Thunderstorms  Fog  Heavy snow  Heavy precipitations  Wind > 20 kt
SIGMETs :     Misc.  Thunderstorms  Icing  Turbulence  Mountain Waves  Volcanic Ashes






- Airport Elevation : 405 ft
- IATA code : SUJ


LRSM - Satu Mare

CURRENT METAR :
  • 270600Z 20001KT 2500 BR NSC 00/M00 Q1018 R01/19//95

EXPIRED METARs :
  • 270530Z 20001KT 3000 BR NSC 00/M00 Q1018 R01/19//95
  • 270500Z 25003KT 3000 BR FEW048 00/M00 Q1018 R01/19//95
  • 270430Z 00000KT 3000 BR FEW047 00/M00 Q1018 R01/19//95
  • 270400Z 29003KT 3000 BR NSC 00/M00 Q1018
  • 270330Z AUTO 30002KT 210V350 2500 BR BKN080/// 00/M00 Q1018

TAF TAF LRSM
Valid from the 27 at 06:00 until the 27 at 15:00 UTC


270500Z 2706/2715 VRB04KT 3000 BR NSC
BECMG 2707/2709 5000
TEMPO 2710/2715 3000 -RA BR BKN015 BKN030



MET'MAP, your aeronautical weather chart ! - Copyright ORBIFLY December 2007 - Disclaimer

ORBIFLY MET'MAP TEAM :

Programming & Development : Alexandra Zaïnal
Concept & original design : Baudouin d'Aumeries
Assistance for programming : Marc-Olivier Méhu
Technical & hardware support : Manuel Goepfert

Contact : metmap@orbifly.com




SOURCES & CREDITS :

   NOAA